createdAt,value
2024-01-31T00:00:40.201Z,57.16
2024-01-31T00:01:40.216Z,63.46
2024-01-31T00:02:40.201Z,64.44
2024-01-31T00:03:40.160Z,56.55
2024-01-31T00:04:40.224Z,64.71
2024-01-31T00:05:40.172Z,56.85
2024-01-31T00:06:40.114Z,56.23
2024-01-31T00:07:40.144Z,56.53
2024-01-31T00:08:40.116Z,64.30
2024-01-31T00:09:40.082Z,59.58
2024-01-31T00:10:40.189Z,61.76
2024-01-31T00:11:40.107Z,56.32
2024-01-31T00:12:40.099Z,56.97
2024-01-31T00:13:40.097Z,63.68
2024-01-31T00:14:40.069Z,64.53
2024-01-31T00:15:40.101Z,62.31
2024-01-31T00:16:40.085Z,59.73
2024-01-31T00:17:40.055Z,56.28
2024-01-31T00:18:40.084Z,58.12
2024-01-31T00:19:40.185Z,69.35
2024-01-31T00:20:40.013Z,57.16
2024-01-31T00:21:40.060Z,56.42
2024-01-31T00:22:40.139Z,67.13
2024-01-31T00:23:39.990Z,60.88
2024-01-31T00:24:40.003Z,59.95
2024-01-31T00:25:40.075Z,64.22
2024-01-31T00:26:40.007Z,56.51
2024-01-31T00:27:39.988Z,64.77
2024-01-31T00:28:40.087Z,58.00
2024-01-31T00:29:40.051Z,67.05
2024-01-31T00:32:50.734Z,64.37
2024-01-31T00:33:50.881Z,64.14
2024-01-31T00:34:50.694Z,68.04
2024-01-31T00:35:50.633Z,68.50
2024-01-31T00:36:50.603Z,61.74
2024-01-31T00:37:50.677Z,61.49
2024-01-31T00:38:50.614Z,56.98
2024-01-31T00:39:50.637Z,59.50
2024-01-31T00:40:50.624Z,64.54
2024-01-31T00:41:50.570Z,56.70
2024-01-31T00:42:50.600Z,60.38
2024-01-31T00:43:50.554Z,56.18
2024-01-31T00:44:50.569Z,56.87
2024-01-31T00:45:50.547Z,62.16
2024-01-31T00:46:50.598Z,56.72
2024-01-31T00:47:50.583Z,56.41
2024-01-31T00:48:50.593Z,56.36
2024-01-31T00:49:50.585Z,56.40
2024-01-31T00:50:50.511Z,60.68
2024-01-31T00:51:50.538Z,56.52
2024-01-31T00:52:50.497Z,56.82
2024-01-31T00:53:50.637Z,61.86
2024-01-31T00:54:51.141Z,58.88
2024-01-31T00:55:50.526Z,60.97
2024-01-31T00:56:59.285Z,62.89
2024-01-31T00:58:25.676Z,63.29
2024-01-31T00:58:50.690Z,57.53
2024-01-31T01:00:31.918Z,61.10
2024-01-31T01:00:50.860Z,58.34
2024-01-31T01:01:51.406Z,60.09
2024-01-31T01:02:50.462Z,59.31
2024-01-31T01:03:50.550Z,58.32
2024-01-31T01:04:50.481Z,59.88
2024-01-31T01:05:50.476Z,58.73
2024-01-31T01:06:51.263Z,70.75
2024-01-31T01:07:50.435Z,62.94
2024-01-31T01:08:50.547Z,63.75
2024-01-31T01:09:50.408Z,70.03
2024-01-31T01:10:50.398Z,67.77
2024-01-31T01:11:50.395Z,62.31
2024-01-31T01:12:50.373Z,56.10
2024-01-31T01:13:50.414Z,60.34
2024-01-31T01:14:51.772Z,56.02
2024-01-31T01:15:50.400Z,58.76
2024-01-31T01:16:50.391Z,62.70
2024-01-31T01:17:50.420Z,56.02
2024-01-31T01:18:50.388Z,55.74
2024-01-31T01:19:50.529Z,60.54
2024-01-31T01:20:50.350Z,56.19
2024-01-31T01:21:50.292Z,67.82
2024-01-31T01:22:50.324Z,68.36
2024-01-31T01:23:52.755Z,57.44
2024-01-31T01:24:51.381Z,56.65
2024-01-31T01:25:50.354Z,60.72
2024-01-31T01:26:50.302Z,62.52
2024-01-31T01:27:50.304Z,61.99
2024-01-31T01:28:50.322Z,63.23
2024-01-31T01:29:50.338Z,58.80
2024-01-31T01:30:50.778Z,56.81
2024-01-31T01:31:50.293Z,61.10
2024-01-31T01:32:50.422Z,60.66
2024-01-31T01:33:50.293Z,62.02
2024-01-31T01:34:50.309Z,62.72
2024-01-31T01:35:50.261Z,57.90
2024-01-31T01:36:50.282Z,60.16
2024-01-31T01:37:50.345Z,68.28
2024-01-31T01:38:50.232Z,67.94
2024-01-31T01:39:50.221Z,64.20
2024-01-31T01:40:50.295Z,59.11
2024-01-31T01:41:50.191Z,56.67
2024-01-31T01:42:50.256Z,59.08
2024-01-31T01:43:50.247Z,71.77
2024-01-31T01:44:50.212Z,58.07
2024-01-31T01:45:50.190Z,64.80
2024-01-31T01:46:50.191Z,61.81
2024-01-31T01:47:50.388Z,59.66
2024-01-31T01:48:50.252Z,56.08
2024-01-31T01:49:50.255Z,55.98
2024-01-31T01:50:50.152Z,60.39
2024-01-31T01:51:50.157Z,56.16
2024-01-31T01:52:50.152Z,55.93
2024-01-31T01:53:52.069Z,56.05
2024-01-31T01:54:51.137Z,61.49
2024-01-31T01:55:50.245Z,66.13
2024-01-31T01:56:50.158Z,56.04
2024-01-31T01:57:50.096Z,60.61
2024-01-31T01:58:50.438Z,64.74
2024-01-31T01:59:50.090Z,60.56
2024-01-31T02:00:50.110Z,62.42
2024-01-31T02:01:50.109Z,62.36
2024-01-31T02:02:50.082Z,56.07
2024-01-31T02:04:25.187Z,58.89
2024-01-31T02:04:50.522Z,62.82
2024-01-31T02:05:50.175Z,56.09
2024-01-31T02:06:50.156Z,56.09
2024-01-31T02:07:50.099Z,56.35
2024-01-31T02:08:50.093Z,64.50
2024-01-31T02:09:50.021Z,58.28
2024-01-31T02:10:50.139Z,56.07
2024-01-31T02:11:50.032Z,63.11
2024-01-31T02:12:49.988Z,56.92
2024-01-31T02:13:50.004Z,63.82
2024-01-31T02:14:49.993Z,61.25
2024-01-31T02:15:49.972Z,56.24
2024-01-31T02:16:50.023Z,56.22
2024-01-31T02:17:50.056Z,56.36
2024-01-31T02:18:50.006Z,61.28
2024-01-31T02:19:50.055Z,67.03
2024-01-31T02:20:49.924Z,58.85
2024-01-31T02:21:50.006Z,57.86
2024-01-31T02:22:49.952Z,57.36
2024-01-31T02:23:49.920Z,62.31
2024-01-31T02:24:49.935Z,70.88
2024-01-31T02:25:49.959Z,62.74
2024-01-31T02:26:49.917Z,56.26
2024-01-31T02:27:49.958Z,63.95
2024-01-31T02:28:49.940Z,64.70
2024-01-31T02:29:49.886Z,65.99
2024-01-31T02:30:49.897Z,61.10
2024-01-31T03:15:52.663Z,62.22
2024-01-31T03:16:52.582Z,55.83
2024-01-31T03:17:52.582Z,56.04
2024-01-31T03:18:52.647Z,56.35
2024-01-31T03:19:52.686Z,66.47
2024-01-31T03:20:52.537Z,62.27
2024-01-31T03:21:52.564Z,57.21
2024-01-31T03:22:52.520Z,59.42
2024-01-31T03:23:52.549Z,59.57
2024-01-31T03:24:52.475Z,55.98
2024-01-31T03:25:52.497Z,59.09
2024-01-31T03:26:52.503Z,60.87
2024-01-31T03:27:52.496Z,65.40
2024-01-31T03:28:52.463Z,66.49
2024-01-31T03:29:52.464Z,63.18
2024-01-31T03:30:52.574Z,62.80
2024-01-31T03:31:53.479Z,62.80
2024-01-31T03:32:52.543Z,64.64
2024-01-31T03:33:52.555Z,64.79
2024-01-31T03:34:52.476Z,59.91
2024-01-31T03:35:52.439Z,59.21
2024-01-31T03:36:52.446Z,59.19
2024-01-31T03:37:52.433Z,60.72
2024-01-31T03:38:52.399Z,62.77
2024-01-31T03:39:52.396Z,63.54
2024-01-31T03:40:52.589Z,60.55
2024-01-31T03:41:52.443Z,64.04
2024-01-31T03:42:52.402Z,66.98
2024-01-31T03:43:52.367Z,64.76
2024-01-31T03:44:52.381Z,65.38
2024-01-31T03:45:52.362Z,60.15
2024-01-31T03:46:52.386Z,65.15
2024-01-31T03:47:52.407Z,69.35
2024-01-31T03:48:52.406Z,65.32
2024-01-31T03:49:52.642Z,58.12
2024-01-31T03:50:52.361Z,59.53
2024-01-31T03:51:52.311Z,66.40
2024-01-31T03:52:53.400Z,56.85
2024-01-31T03:53:52.322Z,68.49
2024-01-31T03:54:52.352Z,64.06
2024-01-31T03:55:52.309Z,60.98
2024-01-31T03:56:52.278Z,68.68
2024-01-31T03:57:52.322Z,57.97
2024-01-31T03:58:52.294Z,63.52
2024-01-31T03:59:52.305Z,66.66
2024-01-31T04:00:52.323Z,67.32
2024-01-31T04:01:52.415Z,67.20
2024-01-31T04:02:52.261Z,66.36
2024-01-31T04:03:52.262Z,65.16
2024-01-31T04:04:52.403Z,62.29
2024-01-31T04:05:52.280Z,68.94
2024-01-31T04:06:52.226Z,69.51
2024-01-31T04:07:52.318Z,71.07
2024-01-31T04:08:52.250Z,67.22
2024-01-31T04:09:52.211Z,66.45
2024-01-31T04:10:52.299Z,69.41
2024-01-31T04:11:52.257Z,68.26
2024-01-31T04:12:52.244Z,66.18
2024-01-31T04:13:52.196Z,69.54
2024-01-31T04:14:52.233Z,65.74
2024-01-31T04:15:53.042Z,67.73
2024-01-31T04:16:52.190Z,63.40
2024-01-31T04:17:52.295Z,64.06
2024-01-31T04:18:53.232Z,65.23
2024-01-31T04:19:52.174Z,75.40
2024-01-31T04:20:52.195Z,72.33
2024-01-31T04:21:52.188Z,69.83
2024-01-31T04:22:52.183Z,65.24
2024-01-31T04:23:52.186Z,66.40
2024-01-31T04:24:52.153Z,67.54
2024-01-31T04:25:52.151Z,70.41
2024-01-31T04:26:52.099Z,64.81
2024-01-31T04:27:52.144Z,72.59
2024-01-31T04:28:52.098Z,71.13
2024-01-31T04:29:52.088Z,65.19
2024-01-31T04:30:52.120Z,71.04
2024-01-31T04:31:52.151Z,66.82
2024-01-31T04:32:53.191Z,69.38
2024-01-31T04:33:52.110Z,66.47
2024-01-31T04:34:52.199Z,69.24
2024-01-31T04:35:52.169Z,67.45
2024-01-31T04:37:27.161Z,69.97
2024-01-31T04:37:52.253Z,69.18
2024-01-31T04:38:52.213Z,71.18
2024-01-31T04:39:52.096Z,70.06
2024-01-31T04:40:52.095Z,69.77
2024-01-31T04:41:52.050Z,70.73
2024-01-31T04:42:54.254Z,71.38
2024-01-31T04:43:53.065Z,69.64
2024-01-31T04:44:52.009Z,74.02
2024-01-31T04:45:52.591Z,64.19
2024-01-31T04:46:52.028Z,73.38
2024-01-31T04:47:51.986Z,70.33
2024-01-31T04:48:52.154Z,72.33
2024-01-31T04:49:52.267Z,71.64
2024-01-31T04:50:52.011Z,72.32
2024-01-31T04:51:52.654Z,65.49
2024-01-31T04:52:52.098Z,65.68
2024-01-31T04:53:52.038Z,73.05
2024-01-31T04:54:51.970Z,70.65
2024-01-31T04:55:51.987Z,72.16
2024-01-31T04:56:51.941Z,65.45
2024-01-31T04:57:51.935Z,64.51
2024-01-31T04:58:51.930Z,73.87
2024-01-31T04:59:53.540Z,66.28
2024-01-31T05:00:52.679Z,66.24
2024-01-31T05:01:52.032Z,68.07
2024-01-31T05:02:52.657Z,72.18
2024-01-31T05:03:52.013Z,72.74
2024-01-31T05:04:52.002Z,73.01
2024-01-31T05:05:52.081Z,66.36
2024-01-31T05:06:51.872Z,73.55
2024-01-31T05:07:52.598Z,71.53
2024-01-31T05:08:51.867Z,70.12
2024-01-31T05:09:51.865Z,72.21
2024-01-31T05:10:51.881Z,72.35
2024-01-31T05:11:52.847Z,69.07
2024-01-31T05:12:51.944Z,68.22
2024-01-31T05:13:52.311Z,67.14
2024-01-31T05:14:52.872Z,72.11
2024-01-31T05:15:51.875Z,68.86
2024-01-31T05:16:51.874Z,72.05
2024-01-31T05:17:51.863Z,74.95
2024-01-31T05:18:51.861Z,75.03
2024-01-31T05:19:52.906Z,71.41
2024-01-31T05:20:52.274Z,71.82
2024-01-31T05:21:51.943Z,74.54
2024-01-31T05:22:51.967Z,73.38
2024-01-31T05:23:52.704Z,71.33
2024-01-31T05:24:51.970Z,72.34
2024-01-31T05:25:51.917Z,73.59
2024-01-31T05:26:52.047Z,71.38
2024-01-31T05:27:52.795Z,71.78
2024-01-31T05:28:51.889Z,68.04
2024-01-31T05:29:51.927Z,71.29
2024-01-31T05:30:51.883Z,73.17
2024-01-31T05:31:52.895Z,66.84
2024-01-31T05:32:53.896Z,75.07
2024-01-31T05:33:53.045Z,71.95
2024-01-31T05:34:51.854Z,74.52
2024-01-31T05:35:51.735Z,68.83
2024-01-31T05:36:51.832Z,74.76
2024-01-31T05:37:52.784Z,72.17
2024-01-31T05:38:51.752Z,70.86
2024-01-31T05:39:51.748Z,72.71
2024-01-31T05:40:51.822Z,72.41
2024-01-31T05:41:51.758Z,72.02
2024-01-31T05:42:53.829Z,72.40
2024-01-31T05:43:53.550Z,72.98
2024-01-31T05:44:51.660Z,74.21
2024-01-31T05:45:51.666Z,74.65
2024-01-31T05:46:52.582Z,71.49
2024-01-31T05:47:51.707Z,74.09
2024-01-31T05:48:51.667Z,72.99
2024-01-31T05:49:51.685Z,72.40
2024-01-31T05:50:51.646Z,71.14
2024-01-31T05:51:52.793Z,72.55
2024-01-31T05:52:51.661Z,72.47
2024-01-31T05:53:51.604Z,72.12
2024-01-31T05:54:51.579Z,74.57
2024-01-31T05:56:24.440Z,78.21
2024-01-31T05:56:54.253Z,77.47
2024-01-31T05:57:52.710Z,66.67
2024-01-31T05:58:51.594Z,74.92
2024-01-31T05:59:51.671Z,69.32
2024-01-31T06:00:51.717Z,71.35
2024-01-31T06:01:51.587Z,70.65
2024-01-31T06:02:54.259Z,75.02
2024-01-31T06:03:52.566Z,72.25
2024-01-31T06:04:51.666Z,75.69
2024-01-31T06:05:51.555Z,75.69
2024-01-31T06:06:51.565Z,72.97
2024-01-31T06:07:51.556Z,73.66
2024-01-31T06:08:51.498Z,72.65
2024-01-31T06:09:51.502Z,72.27
2024-01-31T06:10:51.595Z,71.15
2024-01-31T06:11:51.502Z,75.50
2024-01-31T06:12:51.542Z,74.09
2024-01-31T06:13:51.536Z,71.26
2024-01-31T06:14:51.542Z,71.51
2024-01-31T06:15:51.506Z,72.92
2024-01-31T06:16:51.529Z,72.29
2024-01-31T06:17:51.637Z,73.26
2024-01-31T06:18:51.456Z,72.14
2024-01-31T06:19:51.674Z,70.12
2024-01-31T06:20:51.557Z,74.04
2024-01-31T06:21:51.462Z,73.51
2024-01-31T06:22:51.493Z,75.87
2024-01-31T06:23:51.424Z,73.54
2024-01-31T06:24:51.420Z,74.29
2024-01-31T06:25:51.411Z,72.22
2024-01-31T06:26:51.384Z,74.51
2024-01-31T06:27:51.398Z,71.92
2024-01-31T06:28:51.734Z,74.74
2024-01-31T10:00:56.031Z,71.22
2024-01-31T10:01:55.750Z,74.00
2024-01-31T10:02:54.734Z,75.32
2024-01-31T10:38:50.035Z,72.70
2024-01-31T13:39:36.544Z,78.02
2024-01-31T13:40:39.510Z,77.45
2024-01-31T13:54:21.437Z,73.83
2024-01-31T14:10:59.557Z,75.71
2024-01-31T14:15:12.681Z,74.35
2024-01-31T14:16:12.849Z,74.34
2024-01-31T14:25:43.945Z,73.03
2024-01-31T14:26:44.120Z,76.67
2024-01-31T14:27:44.657Z,76.84
2024-01-31T17:13:49.133Z,70.76
2024-01-31T18:31:25.127Z,66.69
2024-01-31T18:32:26.210Z,71.05
2024-01-31T18:33:24.240Z,72.09
2024-01-31T18:34:24.502Z,69.50
2024-01-31T18:35:25.292Z,71.85
2024-01-31T18:36:24.586Z,74.17
2024-01-31T18:37:25.290Z,70.64
2024-01-31T18:38:25.967Z,72.30
2024-01-31T18:39:25.473Z,68.54
2024-01-31T18:40:24.954Z,71.95
2024-01-31T18:41:25.141Z,66.89
2024-01-31T18:42:25.030Z,73.21
2024-01-31T18:43:25.920Z,71.44
2024-01-31T18:44:24.127Z,71.38
2024-01-31T18:45:24.473Z,70.92
2024-01-31T18:46:25.512Z,71.33
2024-01-31T18:47:23.926Z,72.05
2024-01-31T18:48:31.367Z,71.36
2024-01-31T18:49:24.519Z,71.96
2024-01-31T19:31:17.078Z,71.90
2024-01-31T19:32:16.371Z,64.27
2024-01-31T19:33:16.163Z,69.65
2024-01-31T19:34:16.008Z,69.49
2024-01-31T19:35:17.194Z,72.55
2024-01-31T19:36:18.807Z,67.85
2024-01-31T19:37:17.972Z,73.29
2024-01-31T19:38:17.015Z,72.54
2024-01-31T19:39:15.860Z,69.99
2024-01-31T19:40:18.233Z,67.25
2024-01-31T19:41:17.007Z,65.56
2024-01-31T19:42:15.817Z,70.28
2024-01-31T19:43:18.293Z,68.26
2024-01-31T19:44:15.845Z,72.51
2024-01-31T19:45:16.054Z,65.01
2024-01-31T19:46:15.807Z,69.33
2024-01-31T19:47:15.933Z,67.60
2024-01-31T19:48:17.203Z,69.26
2024-01-31T19:49:15.967Z,70.13
2024-01-31T20:22:37.988Z,71.44
2024-01-31T20:24:16.606Z,70.65
2024-01-31T20:25:14.921Z,64.37
2024-01-31T20:25:37.513Z,69.90
2024-01-31T20:26:37.317Z,71.24
2024-01-31T20:27:37.351Z,71.60
2024-01-31T20:28:37.193Z,67.79
2024-01-31T20:35:27.886Z,66.60
2024-01-31T20:36:27.542Z,70.46
2024-01-31T22:08:25.991Z,70.00
2024-01-31T22:09:26.137Z,59.58
2024-01-31T22:10:27.214Z,67.68
2024-01-31T22:11:27.095Z,64.68
2024-01-31T22:12:26.994Z,67.40
2024-01-31T22:13:27.138Z,68.67
2024-01-31T22:14:28.316Z,70.69
2024-01-31T22:15:27.142Z,65.58
2024-01-31T22:40:52.136Z,62.61
2024-01-31T22:41:49.994Z,62.00
2024-01-31T22:42:50.086Z,65.96
2024-01-31T22:43:50.224Z,62.69
2024-01-31T22:44:50.221Z,61.68
2024-01-31T22:45:50.023Z,64.99
2024-01-31T22:46:50.010Z,63.25
2024-01-31T22:47:49.986Z,63.14
2024-01-31T22:48:50.072Z,62.58
2024-01-31T22:49:50.107Z,63.53
2024-01-31T22:50:49.990Z,62.20
2024-01-31T22:51:50.135Z,63.82
2024-01-31T22:52:50.316Z,68.03
2024-01-31T22:53:49.950Z,67.95
2024-01-31T22:54:57.242Z,68.53
2024-01-31T22:55:52.036Z,64.71
2024-01-31T22:56:49.901Z,64.66
2024-01-31T22:57:49.965Z,65.11
2024-01-31T22:58:49.816Z,63.47
2024-01-31T22:59:50.234Z,66.13
2024-01-31T23:00:49.958Z,59.96
2024-01-31T23:01:49.844Z,59.70
2024-01-31T23:02:49.943Z,65.54
2024-01-31T23:03:49.817Z,65.20
2024-01-31T23:04:49.777Z,67.89
2024-01-31T23:05:49.815Z,60.28
2024-01-31T23:06:50.170Z,65.63
2024-01-31T23:07:50.787Z,65.63
2024-01-31T23:08:49.761Z,62.58
2024-01-31T23:09:49.779Z,65.50
2024-01-31T23:10:49.859Z,62.51
2024-01-31T23:11:49.822Z,63.91
2024-01-31T23:12:49.854Z,63.64
2024-01-31T23:13:49.818Z,59.41
2024-01-31T23:14:49.916Z,65.10
2024-01-31T23:15:49.759Z,59.53
2024-01-31T23:16:49.827Z,62.93
2024-01-31T23:17:49.927Z,68.29
2024-01-31T23:18:49.841Z,66.41
2024-01-31T23:19:50.362Z,61.93
2024-01-31T23:20:50.298Z,67.11
2024-01-31T23:21:50.025Z,63.91
2024-01-31T23:22:50.123Z,59.55
2024-01-31T23:23:49.700Z,59.59
2024-01-31T23:24:49.998Z,60.07
2024-01-31T23:25:49.790Z,63.21
2024-01-31T23:26:49.663Z,67.00
2024-01-31T23:27:49.700Z,60.55
2024-01-31T23:28:50.006Z,60.57
2024-01-31T23:29:49.679Z,63.35
2024-01-31T23:42:49.736Z,66.13
2024-01-31T23:43:50.760Z,68.81
2024-01-31T23:44:50.945Z,60.77
2024-01-31T23:45:50.753Z,59.31
2024-01-31T23:46:50.588Z,63.85
2024-01-31T23:47:51.036Z,59.59
2024-01-31T23:48:50.747Z,59.95
2024-01-31T23:49:50.736Z,65.01
2024-01-31T23:54:46.710Z,64.04
2024-01-31T23:55:47.720Z,66.42
2024-01-31T23:56:47.845Z,60.19
2024-01-31T23:57:47.680Z,60.01
2024-01-31T23:58:47.646Z,60.56
2024-01-31T23:59:47.760Z,61.90
